createdAt,value
2022-10-15T00:01:38.430Z,63.66
2022-10-15T00:04:08.209Z,63.27
2022-10-15T00:06:37.751Z,63.51
2022-10-15T00:09:08.744Z,63.32
2022-10-15T00:11:40.166Z,63.48
2022-10-15T00:14:10.015Z,63.54
2022-10-15T00:16:40.478Z,63.32
2022-10-15T00:19:10.649Z,63.70
2022-10-15T00:21:41.226Z,63.26
2022-10-15T00:24:20.410Z,63.14
2022-10-15T00:26:50.082Z,63.44
2022-10-15T00:29:19.643Z,63.66
2022-10-15T00:31:49.422Z,63.43
2022-10-15T00:34:19.040Z,63.11
2022-10-15T00:36:50.976Z,62.95
2022-10-15T00:39:21.961Z,63.09
2022-10-15T00:41:51.565Z,63.52
2022-10-15T00:44:39.837Z,63.14
2022-10-15T00:47:14.319Z,63.33
2022-10-15T00:49:45.788Z,63.20
2022-10-15T00:52:17.735Z,63.28
2022-10-15T00:54:50.651Z,63.44
2022-10-15T00:57:20.643Z,63.30
2022-10-15T00:59:52.729Z,62.90
2022-10-15T01:02:23.108Z,63.20
2022-10-15T01:04:53.619Z,63.31
2022-10-15T01:07:23.157Z,63.62
2022-10-15T01:09:54.335Z,63.85
2022-10-15T01:12:29.843Z,63.73
2022-10-15T01:15:02.251Z,63.25
2022-10-15T01:17:36.195Z,63.56
2022-10-15T01:20:17.112Z,63.30
2022-10-15T01:22:51.865Z,63.31
2022-10-15T01:25:30.147Z,63.59
2022-10-15T01:28:08.055Z,63.12
2022-10-15T01:30:41.022Z,62.85
2022-10-15T01:33:23.122Z,62.99
2022-10-15T01:35:53.500Z,63.09
2022-10-15T01:38:31.418Z,63.13
2022-10-15T01:41:04.955Z,63.35
2022-10-15T01:43:36.967Z,63.56
2022-10-15T01:46:09.970Z,64.11
2022-10-15T01:48:39.921Z,64.29
2022-10-15T01:51:11.820Z,64.18
2022-10-15T01:53:41.695Z,64.31
2022-10-15T01:56:16.880Z,64.53
2022-10-15T01:58:48.286Z,64.96
2022-10-15T02:01:19.356Z,65.83
2022-10-15T02:03:49.877Z,65.95
2022-10-15T02:06:22.785Z,66.33
2022-10-15T02:09:10.317Z,66.35
2022-10-15T02:11:49.151Z,66.00
2022-10-15T02:14:28.161Z,67.07
2022-10-15T02:17:04.177Z,67.42
2022-10-15T02:19:39.088Z,67.30
2022-10-15T02:22:10.554Z,67.86
2022-10-15T02:24:42.874Z,68.61
2022-10-15T02:27:14.327Z,68.88
2022-10-15T02:29:45.252Z,69.22
2022-10-15T02:32:16.724Z,69.43
2022-10-15T02:34:47.480Z,69.92
2022-10-15T02:37:18.577Z,70.52
2022-10-15T02:39:48.428Z,70.78
2022-10-15T02:42:18.878Z,71.28
2022-10-15T02:44:48.665Z,71.06
2022-10-15T02:47:19.709Z,71.44
2022-10-15T02:49:49.318Z,71.36
2022-10-15T02:52:19.460Z,71.02
2022-10-15T02:54:48.986Z,71.12
2022-10-15T02:57:18.504Z,71.46
2022-10-15T02:59:48.106Z,71.76
2022-10-15T03:02:19.419Z,71.51
2022-10-15T03:04:49.090Z,71.02
2022-10-15T03:07:19.014Z,71.33
2022-10-15T03:09:48.639Z,72.04
2022-10-15T03:12:18.166Z,72.00
2022-10-15T03:14:48.345Z,72.62
2022-10-15T03:17:19.387Z,72.38
2022-10-15T03:19:49.203Z,73.17
2022-10-15T03:22:18.830Z,72.71
2022-10-15T03:24:48.386Z,72.74
2022-10-15T03:27:17.964Z,72.98
2022-10-15T03:29:47.629Z,73.19
2022-10-15T03:32:17.250Z,73.92
2022-10-15T03:34:48.291Z,74.74
2022-10-15T03:37:17.881Z,74.77
2022-10-15T03:39:47.452Z,74.74
2022-10-15T03:42:17.127Z,75.40
2022-10-15T03:44:46.852Z,75.71
2022-10-15T03:47:16.415Z,75.68
2022-10-15T03:49:46.112Z,75.67
2022-10-15T03:52:17.355Z,76.38
2022-10-15T03:54:46.994Z,76.35
2022-10-15T03:57:16.499Z,76.25
2022-10-15T03:59:46.205Z,76.42
2022-10-15T04:02:15.867Z,76.52
2022-10-15T04:04:45.405Z,76.72
2022-10-15T04:07:14.970Z,76.09
2022-10-15T04:09:46.112Z,76.40
2022-10-15T04:12:15.673Z,75.99
2022-10-15T04:14:45.767Z,76.24
2022-10-15T04:17:15.676Z,76.30
2022-10-15T04:19:47.631Z,76.04
2022-10-15T04:22:17.320Z,76.26
2022-10-15T04:24:48.692Z,76.13
2022-10-15T04:27:18.321Z,76.09
2022-10-15T04:29:48.321Z,76.31
2022-10-15T04:32:18.145Z,76.56
2022-10-15T04:34:48.313Z,76.33
2022-10-15T04:37:18.786Z,76.44
2022-10-15T04:39:49.747Z,76.06
2022-10-15T04:42:19.435Z,76.34
2022-10-15T04:44:49.142Z,76.53
2022-10-15T04:47:18.696Z,75.67
2022-10-15T04:49:48.179Z,76.13
2022-10-15T04:52:17.789Z,75.76
2022-10-15T04:54:48.900Z,76.17
2022-10-15T04:57:18.499Z,76.40
2022-10-15T04:59:48.164Z,75.78
2022-10-15T05:02:17.864Z,76.59
2022-10-15T05:04:47.644Z,76.49
2022-10-15T05:07:17.219Z,76.66
2022-10-15T05:09:47.411Z,76.88
2022-10-15T05:12:19.155Z,76.58
2022-10-15T05:14:49.294Z,76.78
2022-10-15T05:17:19.223Z,77.19
2022-10-15T05:19:48.981Z,77.20
2022-10-15T05:22:18.717Z,77.84
2022-10-15T05:24:48.294Z,77.94
2022-10-15T05:27:19.635Z,78.29
2022-10-15T05:29:49.270Z,78.42
2022-10-15T05:34:54.771Z,77.84
2022-10-15T05:37:26.136Z,77.57
2022-10-15T05:39:55.845Z,78.16
2022-10-15T05:42:26.991Z,78.25
2022-10-15T05:44:57.432Z,77.74
2022-10-15T05:47:27.157Z,77.91
2022-10-15T05:49:57.276Z,78.15
2022-10-15T05:52:27.260Z,78.47
2022-10-15T05:54:57.163Z,79.05
2022-10-15T05:57:28.210Z,79.35
2022-10-15T05:59:57.898Z,78.79
2022-10-15T06:02:28.079Z,78.66
2022-10-15T06:04:57.970Z,78.45
2022-10-15T06:07:27.819Z,78.65
2022-10-15T06:09:57.793Z,78.60
2022-10-15T06:12:28.843Z,78.28
2022-10-15T06:14:58.461Z,78.17
2022-10-15T06:17:28.115Z,78.82
2022-10-15T06:19:57.708Z,78.85
2022-10-15T06:22:27.797Z,78.05
2022-10-15T06:24:57.392Z,78.39
2022-10-15T06:27:28.557Z,79.05
2022-10-15T06:29:58.108Z,78.55
2022-10-15T06:32:27.646Z,78.94
2022-10-15T06:34:57.442Z,78.43
2022-10-15T06:37:27.243Z,78.48
2022-10-15T06:39:57.007Z,78.39
2022-10-15T06:42:28.030Z,77.95
2022-10-15T06:44:57.630Z,77.90
2022-10-15T06:47:27.402Z,77.68
2022-10-15T06:49:56.941Z,77.51
2022-10-15T06:52:26.811Z,76.96
2022-10-15T06:54:56.365Z,77.03
2022-10-15T06:57:26.325Z,76.61
2022-10-15T06:59:57.732Z,76.69
2022-10-15T07:02:27.463Z,76.69
2022-10-15T07:04:57.047Z,76.55
2022-10-15T07:07:26.775Z,76.88
2022-10-15T07:09:56.570Z,77.11
2022-10-15T07:12:26.634Z,76.19
2022-10-15T07:14:57.737Z,76.07
2022-10-15T07:17:27.833Z,75.56
2022-10-15T07:19:57.771Z,74.99
2022-10-15T07:22:28.130Z,75.28
2022-10-15T07:24:57.895Z,74.67
2022-10-15T07:27:27.629Z,74.52
2022-10-15T07:29:58.844Z,74.17
2022-10-15T07:32:28.735Z,73.78
2022-10-15T07:34:58.425Z,72.88
2022-10-15T07:37:27.993Z,72.85
2022-10-15T07:39:57.679Z,72.85
2022-10-15T07:42:27.576Z,71.92
2022-10-15T07:44:59.426Z,71.63
2022-10-15T07:47:29.123Z,71.29
2022-10-15T07:49:58.709Z,70.95
2022-10-15T07:52:28.454Z,70.17
2022-10-15T07:54:58.312Z,69.62
2022-10-15T07:57:27.861Z,67.46
2022-10-15T07:59:58.876Z,67.47
2022-10-15T08:02:28.841Z,67.56
2022-10-15T08:04:58.480Z,67.76
2022-10-15T08:07:28.082Z,66.86
2022-10-15T08:09:57.666Z,65.68
2022-10-15T08:12:28.211Z,64.70
2022-10-15T08:14:59.183Z,64.82
2022-10-15T08:17:28.948Z,62.45
2022-10-15T08:19:58.682Z,62.79
2022-10-15T08:22:28.395Z,62.82
2022-10-15T08:24:58.008Z,62.62
2022-10-15T08:27:27.780Z,63.40
2022-10-15T08:29:57.400Z,63.02
2022-10-15T08:32:28.625Z,62.52
2022-10-15T08:34:58.177Z,61.85
2022-10-15T08:37:27.982Z,59.66
2022-10-15T08:39:57.857Z,59.83
2022-10-15T08:42:33.318Z,60.04
2022-10-15T08:45:05.183Z,58.90
2022-10-15T08:47:39.419Z,58.29
2022-10-15T08:50:18.640Z,57.85
2022-10-15T08:52:49.445Z,57.82
2022-10-15T08:55:20.467Z,58.66
2022-10-15T08:57:54.342Z,58.70
2022-10-15T09:00:25.416Z,58.70
2022-10-15T09:02:58.847Z,58.15
2022-10-15T09:05:31.301Z,58.39
2022-10-15T09:08:19.191Z,58.36
2022-10-15T09:10:50.855Z,56.81
2022-10-15T09:13:25.840Z,56.89
2022-10-15T09:15:58.357Z,56.65
2022-10-15T09:18:31.859Z,56.64
2022-10-15T09:21:02.984Z,55.11
2022-10-15T09:23:34.301Z,54.64
2022-10-15T09:26:08.565Z,54.57
2022-10-15T09:28:42.232Z,54.86
2022-10-15T09:31:14.896Z,53.95
2022-10-15T09:33:47.828Z,54.23
2022-10-15T09:36:30.714Z,53.92
2022-10-15T09:39:06.127Z,53.59
2022-10-15T09:41:44.467Z,53.54
2022-10-15T09:44:17.431Z,53.81
2022-10-15T09:46:51.433Z,52.88
2022-10-15T09:49:25.119Z,52.97
2022-10-15T09:52:01.729Z,53.24
2022-10-15T09:54:38.307Z,53.07
2022-10-15T09:57:10.339Z,52.71
2022-10-15T09:59:40.063Z,53.00
2022-10-15T10:02:18.753Z,53.33
2022-10-15T10:04:49.699Z,53.42
2022-10-15T10:07:30.308Z,53.71
2022-10-15T10:10:01.910Z,53.86
2022-10-15T10:12:33.668Z,54.04
2022-10-15T10:15:05.595Z,54.15
2022-10-15T10:17:35.315Z,53.64
2022-10-15T10:20:18.057Z,53.23
2022-10-15T10:22:51.354Z,53.70
2022-10-15T10:25:29.925Z,53.86
2022-10-15T10:28:15.701Z,53.83
2022-10-15T10:30:51.261Z,54.04
2022-10-15T10:33:24.185Z,54.05
2022-10-15T10:35:55.869Z,54.27
2022-10-15T10:38:27.609Z,54.24
2022-10-15T10:40:59.241Z,54.36
2022-10-15T10:43:30.041Z,54.80
2022-10-15T10:46:00.303Z,54.93
2022-10-15T10:48:30.803Z,54.80
2022-10-15T10:51:09.267Z,54.64
2022-10-15T10:53:45.691Z,54.59
2022-10-15T10:56:15.872Z,54.48
2022-10-15T10:58:45.723Z,54.53
2022-10-15T11:01:16.816Z,54.79
2022-10-15T11:03:46.603Z,54.58
2022-10-15T11:06:32.565Z,54.16
2022-10-15T11:09:07.074Z,54.59
2022-10-15T11:11:43.402Z,54.42
2022-10-15T11:14:21.487Z,54.13
2022-10-15T11:16:55.874Z,54.57
2022-10-15T11:20:05.907Z,55.22
2022-10-15T11:22:26.951Z,54.93
2022-10-15T11:25:07.148Z,55.54
2022-10-15T11:27:52.382Z,55.77
2022-10-15T11:30:30.587Z,55.73
2022-10-15T11:33:08.645Z,55.87
2022-10-15T11:35:59.527Z,55.95
2022-10-15T11:38:35.749Z,55.98
2022-10-15T11:41:11.842Z,56.54
2022-10-15T11:43:53.593Z,56.44
2022-10-15T11:46:29.059Z,56.70
2022-10-15T11:49:04.616Z,56.64
2022-10-15T11:51:36.883Z,56.62
2022-10-15T11:54:14.418Z,56.70
2022-10-15T11:56:46.953Z,56.60
2022-10-15T11:59:21.504Z,56.63
2022-10-15T12:01:53.555Z,56.47
2022-10-15T12:04:30.343Z,55.86
2022-10-15T12:07:03.530Z,56.20
2022-10-15T12:09:36.644Z,55.91
2022-10-15T12:12:10.731Z,56.14
2022-10-15T12:14:44.685Z,56.07
2022-10-15T12:17:18.600Z,56.53
2022-10-15T12:19:50.028Z,56.40
2022-10-15T12:22:34.154Z,56.66
2022-10-15T12:25:06.210Z,56.65
2022-10-15T12:27:36.563Z,57.01
2022-10-15T12:30:22.844Z,56.50
2022-10-15T12:32:52.798Z,56.10
2022-10-15T12:35:24.209Z,55.92
2022-10-15T12:37:53.867Z,55.32
2022-10-15T12:40:29.761Z,55.50
2022-10-15T12:43:01.061Z,55.60
2022-10-15T12:45:37.368Z,55.31
2022-10-15T12:48:20.943Z,55.56
2022-10-15T12:50:50.822Z,55.04
2022-10-15T12:53:34.417Z,54.85
2022-10-15T12:56:22.021Z,55.19
2022-10-15T12:58:52.582Z,55.31
2022-10-15T13:01:51.230Z,55.22
2022-10-15T13:04:21.169Z,54.66
2022-10-15T13:06:50.832Z,54.42
2022-10-15T13:09:30.401Z,54.01
2022-10-15T13:12:03.167Z,54.01
2022-10-15T13:14:36.148Z,54.19
2022-10-15T13:17:07.444Z,54.61
2022-10-15T13:19:39.877Z,55.23
2022-10-15T13:22:21.780Z,55.22
2022-10-15T13:24:54.040Z,54.60
2022-10-15T13:27:26.799Z,54.71
2022-10-15T13:29:57.784Z,54.93
2022-10-15T13:32:30.093Z,55.00
2022-10-15T13:34:59.997Z,55.78
2022-10-15T13:37:32.230Z,56.32
2022-10-15T13:40:06.593Z,56.94
2022-10-15T13:42:39.229Z,56.83
2022-10-15T13:45:17.731Z,57.22
2022-10-15T13:47:48.979Z,57.59
2022-10-15T13:50:20.089Z,57.36
2022-10-15T13:52:51.802Z,56.88
2022-10-15T13:55:23.537Z,56.78
2022-10-15T13:57:57.782Z,58.11
2022-10-15T14:00:29.307Z,59.21
2022-10-15T14:03:09.502Z,59.60
2022-10-15T14:05:39.028Z,60.02
2022-10-15T14:08:15.694Z,59.85
2022-10-15T14:10:45.494Z,60.16
2022-10-15T14:13:17.141Z,60.37
2022-10-15T14:15:53.023Z,60.61
2022-10-15T14:18:29.453Z,60.53
2022-10-15T14:20:59.131Z,61.01
2022-10-15T14:23:28.889Z,60.66
2022-10-15T14:26:00.879Z,61.26
2022-10-15T14:28:32.703Z,61.03
2022-10-15T14:31:03.284Z,60.85
2022-10-15T14:33:34.514Z,61.16
2022-10-15T14:36:05.396Z,61.09
2022-10-15T14:38:35.048Z,61.27
2022-10-15T14:41:07.839Z,61.32
2022-10-15T14:43:39.253Z,61.00
2022-10-15T14:46:13.078Z,61.71
2022-10-15T14:48:44.497Z,61.77
2022-10-15T14:51:18.849Z,62.11
2022-10-15T14:53:48.727Z,61.90
2022-10-15T14:56:20.183Z,62.09
2022-10-15T14:58:53.315Z,61.60
2022-10-15T15:01:23.497Z,62.09
2022-10-15T15:03:53.730Z,62.13
2022-10-15T15:06:23.296Z,62.63
2022-10-15T15:08:52.948Z,62.47
2022-10-15T15:11:24.053Z,62.25
2022-10-15T15:13:55.571Z,62.34
2022-10-15T15:16:25.244Z,62.25
2022-10-15T15:18:58.370Z,61.92
2022-10-15T15:21:27.970Z,62.19
2022-10-15T15:23:58.088Z,62.18
2022-10-15T15:26:27.741Z,62.54
2022-10-15T15:28:59.462Z,62.32
2022-10-15T15:31:32.792Z,62.49
2022-10-15T15:34:02.336Z,62.21
2022-10-15T15:36:32.115Z,62.20
2022-10-15T15:39:01.792Z,62.20
2022-10-15T15:41:33.812Z,61.81
2022-10-15T15:44:05.526Z,60.39
2022-10-15T15:46:35.195Z,59.45
2022-10-15T15:49:04.718Z,58.78
2022-10-15T15:51:34.403Z,57.04
2022-10-15T15:54:06.263Z,55.73
2022-10-15T15:56:36.007Z,55.47
2022-10-15T15:59:07.130Z,54.69
2022-10-15T16:01:37.055Z,54.53
2022-10-15T16:04:06.884Z,53.46
2022-10-15T16:06:36.472Z,53.39
2022-10-15T16:09:06.702Z,53.39
2022-10-15T16:11:38.253Z,53.79
2022-10-15T16:14:09.883Z,53.42
2022-10-15T16:16:39.477Z,53.58
2022-10-15T16:19:09.324Z,53.63
2022-10-15T16:21:38.913Z,53.58
2022-10-15T16:24:08.563Z,54.00
2022-10-15T16:26:38.189Z,53.73
2022-10-15T16:29:09.112Z,53.65
2022-10-15T16:31:38.714Z,53.89
2022-10-15T16:34:08.324Z,53.73
2022-10-15T16:36:38.221Z,53.82
2022-10-15T16:39:08.064Z,53.73
2022-10-15T16:41:37.746Z,53.54
2022-10-15T16:44:07.350Z,53.65
2022-10-15T16:46:41.702Z,53.93
2022-10-15T16:49:12.678Z,53.71
2022-10-15T16:51:43.716Z,53.98
2022-10-15T16:54:14.073Z,53.16
2022-10-15T16:56:47.980Z,53.34
2022-10-15T16:59:21.538Z,53.32
2022-10-15T17:01:52.542Z,52.93
2022-10-15T17:04:22.202Z,53.41
2022-10-15T17:06:51.799Z,52.74
2022-10-15T17:09:21.623Z,53.13
2022-10-15T17:11:51.789Z,53.37
2022-10-15T17:14:23.002Z,53.49
2022-10-15T17:16:54.283Z,53.18
2022-10-15T17:19:27.847Z,53.11
2022-10-15T17:22:00.154Z,53.07
2022-10-15T17:24:29.760Z,53.08
2022-10-15T17:26:59.484Z,53.06
2022-10-15T17:29:32.547Z,53.80
2022-10-15T17:32:05.105Z,53.56
2022-10-15T17:34:34.765Z,53.29
2022-10-15T17:37:04.398Z,53.31
2022-10-15T17:39:34.389Z,53.78
2022-10-15T17:42:04.222Z,53.84
2022-10-15T17:44:33.828Z,53.41
2022-10-15T17:47:05.229Z,53.93
2022-10-15T17:49:34.988Z,54.14
2022-10-15T17:52:04.771Z,53.98
2022-10-15T17:54:34.308Z,54.05
2022-10-15T17:57:04.163Z,54.22
2022-10-15T17:59:33.982Z,54.35
2022-10-15T18:02:05.072Z,55.11
2022-10-15T18:04:34.662Z,55.16
2022-10-15T18:07:04.528Z,55.37
2022-10-15T18:09:34.071Z,55.71
2022-10-15T18:12:04.345Z,56.63
2022-10-15T18:14:33.852Z,56.83
2022-10-15T18:17:05.192Z,57.38
2022-10-15T18:19:34.843Z,57.87
2022-10-15T18:22:04.754Z,57.54
2022-10-15T18:24:34.672Z,57.58
2022-10-15T18:27:04.618Z,57.90
2022-10-15T18:29:36.173Z,57.94
2022-10-15T18:32:07.312Z,58.49
2022-10-15T18:34:37.012Z,58.54
2022-10-15T18:37:06.983Z,59.13
2022-10-15T18:39:36.689Z,59.03
2022-10-15T18:42:06.319Z,59.60
2022-10-15T18:44:35.837Z,59.69
2022-10-15T18:47:08.538Z,59.90
2022-10-15T18:49:38.837Z,60.92
2022-10-15T18:52:21.670Z,61.02
2022-10-15T18:54:58.215Z,60.81
2022-10-15T18:57:27.773Z,61.10
2022-10-15T18:59:57.397Z,61.24
2022-10-15T19:02:28.610Z,61.56
2022-10-15T19:04:58.510Z,62.03
2022-10-15T19:07:31.565Z,62.43
2022-10-15T19:10:01.864Z,62.32
2022-10-15T19:12:34.820Z,63.05
2022-10-15T19:15:05.245Z,63.29
2022-10-15T19:17:37.597Z,63.72
2022-10-15T19:20:07.735Z,63.84
2022-10-15T19:22:37.308Z,63.76
2022-10-15T19:25:07.596Z,63.58
2022-10-15T19:27:37.155Z,63.66
2022-10-15T19:30:08.178Z,63.47
2022-10-15T19:32:39.317Z,63.22
2022-10-15T19:35:09.573Z,63.54
2022-10-15T19:37:39.304Z,63.54
2022-10-15T19:40:10.018Z,63.54
2022-10-15T19:42:40.680Z,63.77
2022-10-15T19:45:10.897Z,63.73
2022-10-15T19:47:42.126Z,63.99
2022-10-15T19:50:13.132Z,63.90
2022-10-15T19:52:42.799Z,64.63
2022-10-15T19:55:12.428Z,64.36
2022-10-15T19:57:41.975Z,64.59
2022-10-15T20:00:12.360Z,64.69
2022-10-15T20:02:43.350Z,64.68
2022-10-15T20:05:13.131Z,64.65
2022-10-15T20:07:44.055Z,65.47
2022-10-15T20:10:13.742Z,65.44
2022-10-15T20:15:20.743Z,65.61
2022-10-15T20:17:51.738Z,65.80
2022-10-15T20:20:22.580Z,65.92
2022-10-15T20:22:52.572Z,65.75
2022-10-15T20:25:22.445Z,65.70
2022-10-15T20:27:52.126Z,65.30
2022-10-15T20:30:22.073Z,65.10
2022-10-15T20:32:53.108Z,64.49
2022-10-15T20:35:23.023Z,64.13
2022-10-15T20:37:52.626Z,63.59
2022-10-15T20:40:22.140Z,63.70
2022-10-15T20:42:52.376Z,63.62
2022-10-15T20:45:22.636Z,64.12
2022-10-15T20:47:54.365Z,63.96
2022-10-15T20:50:26.343Z,63.88
2022-10-15T20:52:56.972Z,63.92
2022-10-15T20:55:26.713Z,63.74
2022-10-15T20:57:56.472Z,64.01
2022-10-15T21:00:26.078Z,63.86
2022-10-15T21:02:57.051Z,63.61
2022-10-15T21:05:26.660Z,64.03
2022-10-15T21:07:58.354Z,63.87
2022-10-15T21:10:27.925Z,64.22
2022-10-15T21:12:58.259Z,64.55
2022-10-15T21:15:30.540Z,64.72
2022-10-15T21:18:01.530Z,64.46
2022-10-15T21:20:31.269Z,64.51
2022-10-15T21:23:00.832Z,64.50
2022-10-15T21:25:30.653Z,64.40
2022-10-15T21:28:00.353Z,64.75
2022-10-15T21:30:30.133Z,64.51
2022-10-15T21:33:01.112Z,64.75
2022-10-15T21:35:30.729Z,64.97
2022-10-15T21:38:04.213Z,65.32
2022-10-15T21:40:33.832Z,65.13
2022-10-15T21:43:03.466Z,65.27
2022-10-15T21:45:33.043Z,65.51
2022-10-15T21:48:04.569Z,65.64
2022-10-15T21:50:34.107Z,65.64
2022-10-15T21:53:04.195Z,65.52
2022-10-15T21:55:33.780Z,65.57
2022-10-15T21:58:03.401Z,65.40
2022-10-15T22:00:32.986Z,65.36
2022-10-15T22:03:03.943Z,65.65
2022-10-15T22:05:33.814Z,65.70
2022-10-15T22:08:03.457Z,65.87
2022-10-15T22:10:33.112Z,65.76
2022-10-15T22:13:05.563Z,65.71
2022-10-15T22:15:35.586Z,65.83
2022-10-15T22:18:06.780Z,65.74
2022-10-15T22:20:36.524Z,66.00
2022-10-15T22:23:06.291Z,66.02
2022-10-15T22:25:35.956Z,66.10
2022-10-15T22:28:06.480Z,66.27
2022-10-15T22:30:36.642Z,66.54
2022-10-15T22:33:07.703Z,66.48
2022-10-15T22:35:37.278Z,67.21
2022-10-15T22:38:07.137Z,67.05
2022-10-15T22:40:36.759Z,67.14
2022-10-15T22:43:06.643Z,67.11
2022-10-15T22:45:36.275Z,67.75
2022-10-15T22:48:07.700Z,67.38
2022-10-15T22:50:37.317Z,67.15
2022-10-15T22:53:07.135Z,67.88
2022-10-15T22:55:36.739Z,67.82
2022-10-15T22:58:06.594Z,67.33
2022-10-15T23:00:36.221Z,67.17
2022-10-15T23:03:07.648Z,68.12
2022-10-15T23:05:37.380Z,67.99
2022-10-15T23:08:07.406Z,68.22
2022-10-15T23:10:38.927Z,69.04
2022-10-15T23:13:09.075Z,68.69
2022-10-15T23:15:39.374Z,68.61
2022-10-15T23:18:10.593Z,68.83
2022-10-15T23:20:40.194Z,69.06
2022-10-15T23:23:10.108Z,69.01
2022-10-15T23:25:40.234Z,69.01
2022-10-15T23:28:10.301Z,69.46
2022-10-15T23:30:40.316Z,69.08
2022-10-15T23:33:11.338Z,69.76
2022-10-15T23:35:40.975Z,69.79
2022-10-15T23:38:10.779Z,69.58
2022-10-15T23:40:40.368Z,69.81
2022-10-15T23:43:10.116Z,69.43
2022-10-15T23:45:41.603Z,68.99
2022-10-15T23:48:12.897Z,68.98
2022-10-15T23:50:42.736Z,69.27
2022-10-15T23:53:12.452Z,69.25
2022-10-15T23:55:42.214Z,70.37
2022-10-15T23:58:12.072Z,69.26
